Time;durP1;ratioP1;P1;durP2;ratioP2;P2;SDS_P1;SDS_P2;PMS_P1;PMS_P2;Temp;Humidity;BMP_temperature;BMP_pressure;BME280_temperature;BME280_humidity;BME280_pressure;Samples;Min_cycle;Max_cycle;Signal;HPM_P1;HPM_P2
2022/11/07 00:01:29;;;;;;;0.40;0.40;;;;;;;9.75;94.99;99271.09;4987983;28;20114;-72
2022/11/07 00:03:54;;;;;;;1.02;1.02;;;;;;;9.66;95.89;99274.75;4987661;28;20027;-72
2022/11/07 00:06:20;;;;;;;0.40;0.40;;;;;;;9.67;95.42;99285.09;4987826;28;20026;-72
2022/11/07 00:08:45;;;;;;;0.50;0.50;;;;;;;9.77;94.72;99284.88;4987697;28;20034;-72
2022/11/07 00:11:11;;;;;;;0.40;0.40;;;;;;;9.64;95.28;99282.56;4987522;28;20027;-74
2022/11/07 00:13:36;;;;;;;0.40;0.40;;;;;;;9.58;96.02;99277.53;4970117;28;20085;-75
2022/11/07 00:16:06;;;;;;;0.40;0.40;;;;;;;9.67;95.43;99276.44;4987368;28;20041;-72
2022/11/07 00:18:32;;;;;;;0.70;0.70;;;;;;;9.65;95.88;99271.31;4987400;28;20034;-73
2022/11/07 00:21:15;;;;;;;0.75;0.75;;;;;;;9.63;96.10;99262.69;4987323;28;20055;-72
2022/11/07 00:23:41;;;;;;;0.40;0.40;;;;;;;9.67;95.21;99266.94;4987454;28;20030;-70
2022/11/07 00:26:11;;;;;;;0.50;0.50;;;;;;;9.66;95.10;99251.44;4987423;28;20023;-69
2022/11/07 00:28:39;;;;;;;0.40;0.40;;;;;;;9.59;95.26;99244.66;4987320;28;20023;-70
2022/11/07 00:31:05;;;;;;;0.40;0.40;;;;;;;9.57;96.02;99234.34;4987367;28;20026;-71
2022/11/07 00:33:31;;;;;;;1.67;1.58;;;;;;;9.61;95.60;99245.50;4987214;28;20037;-72
2022/11/07 00:35:57;;;;;;;0.40;0.40;;;;;;;9.59;95.50;99227.41;4987297;28;20034;-72
2022/11/07 00:38:22;;;;;;;2.72;2.60;;;;;;;9.66;94.91;99231.53;4987147;28;20029;-72
2022/11/07 00:40:55;;;;;;;0.40;0.40;;;;;;;9.63;94.87;99234.19;4986941;28;20034;-73
2022/11/07 00:43:21;;;;;;;1.33;1.33;;;;;;;9.59;95.06;99242.94;4987079;28;20098;-73
2022/11/07 00:45:46;;;;;;;0.50;0.50;;;;;;;9.60;94.59;99229.09;4987170;28;20030;-72
2022/11/07 00:48:12;;;;;;;0.40;0.40;;;;;;;9.63;93.86;99223.00;4987129;28;20033;-73
2022/11/07 00:50:37;;;;;;;0.40;0.40;;;;;;;9.57;94.77;99223.97;4986803;28;20050;-73
2022/11/07 00:53:03;;;;;;;0.50;0.50;;;;;;;9.60;94.18;99223.06;4986911;28;20022;-73
2022/11/07 00:55:28;;;;;;;0.40;0.40;;;;;;;9.52;94.59;99212.91;4986808;28;20082;-73
2022/11/07 00:57:54;;;;;;;0.45;0.45;;;;;;;9.54;94.65;99211.97;4986720;28;20042;-74
2022/11/07 01:00:20;;;;;;;0.47;0.47;;;;;;;9.70;93.20;99210.72;4986774;28;20038;-73
2022/11/07 01:05:09;;;;;;;0.40;0.40;;;;;;;9.63;94.24;99228.19;4986845;28;20026;-74
2022/11/07 01:05:30;;;;;;;0.47;0.47;;;;;;;9.59;93.97;99208.41;4986462;28;20039;-74
2022/11/07 01:07:56;;;;;;;1.23;1.23;;;;;;;9.69;93.24;99201.25;4969098;28;20364;-74
2022/11/07 01:10:21;;;;;;;0.40;0.40;;;;;;;9.63;93.06;99197.09;4986646;28;20026;-75
2022/11/07 01:12:47;;;;;;;0.40;0.40;;;;;;;9.53;93.80;99196.44;4986659;28;20475;-77
2022/11/07 01:15:12;;;;;;;0.40;0.40;;;;;;;9.63;92.97;99187.56;4986617;28;20386;-77
2022/11/07 01:17:37;;;;;;;0.50;0.50;;;;;;;9.63;92.77;99174.59;4986712;28;20022;-76
2022/11/07 01:20:03;;;;;;;0.40;0.40;;;;;;;9.70;91.87;99195.19;4986286;28;20047;-75
2022/11/07 01:22:29;;;;;;;0.40;0.40;;;;;;;9.61;92.45;99185.91;4986564;28;20451;-75
2022/11/07 01:24:54;;;;;;;0.50;0.50;;;;;;;9.54;92.95;99185.19;4986424;28;20557;-76
2022/11/07 01:27:20;;;;;;;1.08;1.02;;;;;;;9.54;93.26;99180.88;4986447;28;20494;-77
2022/11/07 01:29:45;;;;;;;0.40;0.40;;;;;;;9.60;93.52;99187.63;4985609;28;20086;-76
2022/11/07 01:32:10;;;;;;;0.40;0.40;;;;;;;9.65;92.41;99185.78;4985087;28;20056;-76
2022/11/07 01:34:36;;;;;;;10.00;4.25;;;;;;;9.72;92.14;99189.09;4986518;28;20037;-76
2022/11/07 01:37:01;;;;;;;0.40;0.40;;;;;;;9.66;92.11;99178.88;4986222;28;20031;-75
2022/11/07 01:39:27;;;;;;;0.40;0.40;;;;;;;9.62;92.39;99180.69;4986361;28;20031;-74
2022/11/07 01:41:52;;;;;;;0.40;0.40;;;;;;;9.72;91.66;99190.81;4986213;28;20117;-75
2022/11/07 01:44:17;;;;;;;0.40;0.40;;;;;;;9.66;91.68;99182.28;4986289;28;20066;-75
2022/11/07 01:46:44;;;;;;;0.40;0.40;;;;;;;9.62;92.18;99185.00;4986183;28;20050;-74
2022/11/07 01:49:09;;;;;;;0.93;0.93;;;;;;;9.73;91.39;99187.34;4985987;28;20038;-74
2022/11/07 01:51:42;;;;;;;0.40;0.40;;;;;;;9.61;91.86;99184.16;4985947;28;20026;-73
2022/11/07 01:54:09;;;;;;;0.50;0.50;;;;;;;9.73;90.63;99170.03;4986074;28;20023;-75
2022/11/07 01:56:37;;;;;;;0.40;0.40;;;;;;;9.67;91.00;99172.78;4986122;28;20033;-75
2022/11/07 01:59:04;;;;;;;0.43;0.43;;;;;;;9.73;90.56;99177.00;4986058;28;20022;-75
2022/11/07 02:01:29;;;;;;;2.60;2.45;;;;;;;9.85;89.66;99155.94;4986055;28;20371;-76
2022/11/07 02:03:57;;;;;;;0.40;0.40;;;;;;;9.75;90.00;99159.63;4986084;28;20023;-76
2022/11/07 02:06:53;;;;;;;0.50;0.50;;;;;;;9.75;89.55;99155.31;4986138;28;20110;-75
2022/11/07 02:09:18;;;;;;;0.70;0.70;;;;;;;9.68;89.50;99148.56;4986087;28;20356;-74
2022/11/07 02:11:43;;;;;;;0.40;0.40;;;;;;;9.72;89.65;99141.56;4986045;28;20058;-75
2022/11/07 02:14:15;;;;;;;0.43;0.43;;;;;;;9.69;89.78;99128.69;4986140;28;20031;-76
2022/11/07 02:16:41;;;;;;;0.40;0.40;;;;;;;9.73;89.53;99130.34;4986041;28;20406;-75
2022/11/07 02:19:20;;;;;;;0.40;0.40;;;;;;;9.66;89.76;99119.28;4985583;28;20082;-75
2022/11/07 02:21:52;;;;;;;0.40;0.40;;;;;;;9.67;89.71;99124.41;4985712;28;20047;-74
2022/11/07 02:24:23;;;;;;;1.13;1.13;;;;;;;9.79;87.96;99114.63;4986003;28;20114;-75
2022/11/07 02:26:51;;;;;;;0.50;0.50;;;;;;;9.66;88.65;99099.38;4985880;28;20034;-75
2022/11/07 02:29:16;;;;;;;0.40;0.40;;;;;;;9.59;89.13;99091.78;4985641;28;20037;-73
2022/11/07 02:31:41;;;;;;;0.40;0.40;;;;;;;9.73;87.79;99088.88;4985890;28;20042;-75
2022/11/07 02:34:07;;;;;;;0.40;0.40;;;;;;;9.60;88.15;99083.97;4985790;28;20029;-75
2022/11/07 02:36:32;;;;;;;0.40;0.40;;;;;;;9.63;87.80;99083.91;4985800;28;20054;-74
2022/11/07 02:38:58;;;;;;;0.40;0.40;;;;;;;9.81;86.78;99078.28;4985838;28;20037;-76
2022/11/07 02:41:26;;;;;;;0.40;0.40;;;;;;;9.69;86.89;99064.78;4988925;28;20026;-74
2022/11/07 02:43:57;;;;;;;0.43;0.43;;;;;;;9.71;86.55;99054.38;4989455;28;20422;-76
2022/11/07 02:46:24;;;;;;;0.50;0.50;;;;;;;9.73;86.45;99060.38;4989148;28;20094;-75
2022/11/07 02:48:54;;;;;;;0.40;0.40;;;;;;;9.57;87.53;99058.16;4989148;28;20459;-75
2022/11/07 02:51:19;;;;;;;0.40;0.40;;;;;;;9.91;85.67;99036.53;4988988;28;20037;-75
2022/11/07 02:53:45;;;;;;;0.40;0.40;;;;;;;9.72;86.06;99053.47;4989149;28;20066;-74
2022/11/07 02:56:10;;;;;;;0.40;0.40;;;;;;;9.71;85.34;99055.22;4989163;28;20477;-73
2022/11/07 02:58:36;;;;;;;0.40;0.40;;;;;;;9.38;87.15;99063.81;4989011;28;20021;-76
2022/11/07 03:01:05;;;;;;;0.50;0.50;;;;;;;9.10;88.19;99030.00;4989208;28;20118;-73
2022/11/07 03:03:35;;;;;;;0.43;0.43;;;;;;;8.98;89.15;99044.09;4989139;28;20043;-73
2022/11/07 03:06:01;;;;;;;1.20;1.20;;;;;;;8.89;89.81;99050.31;4987587;28;20023;-72
2022/11/07 03:08:27;;;;;;;0.40;0.40;;;;;;;8.79;90.67;99039.31;4988927;28;20037;-73
2022/11/07 03:10:53;;;;;;;0.40;0.40;;;;;;;8.72;91.18;99042.97;4989289;28;20038;-74
2022/11/07 03:13:18;;;;;;;0.50;0.50;;;;;;;8.67;91.26;99049.06;4988925;28;20023;-74
2022/11/07 03:15:43;;;;;;;1.02;0.95;;;;;;;8.74;91.25;99036.84;4988749;28;20057;-72
2022/11/07 03:18:09;;;;;;;0.40;0.40;;;;;;;8.59;91.48;99042.38;4988687;28;20019;-75
2022/11/07 03:20:34;;;;;;;0.40;0.40;;;;;;;8.51;92.39;99032.16;4988384;28;20043;-74
2022/11/07 03:22:59;;;;;;;0.40;0.40;;;;;;;8.61;90.93;99033.69;4988622;28;20027;-76
2022/11/07 03:25:25;;;;;;;0.40;0.40;;;;;;;8.45;91.89;99021.97;4988335;28;20026;-77
2022/11/07 03:27:50;;;;;;;0.40;0.40;;;;;;;8.36;91.98;99026.44;4988962;28;20058;-78
2022/11/07 03:30:16;;;;;;;0.40;0.40;;;;;;;8.24;92.86;99022.38;4991332;28;20027;-77
2022/11/07 03:32:42;;;;;;;0.50;0.50;;;;;;;8.26;92.97;99024.97;4990201;28;20027;-78
2022/11/07 03:35:08;;;;;;;0.43;0.43;;;;;;;8.19;93.47;99008.72;4989861;28;20026;-77
2022/11/07 03:37:33;;;;;;;0.40;0.40;;;;;;;8.15;93.48;99007.06;4989232;28;20034;-78
2022/11/07 03:39:58;;;;;;;0.40;0.40;;;;;;;8.12;93.19;99013.16;4989209;28;20038;-77
2022/11/07 03:42:24;;;;;;;0.40;0.40;;;;;;;8.21;92.79;99014.69;4989075;28;20027;-76
2022/11/07 03:44:49;;;;;;;0.60;0.60;;;;;;;8.10;92.80;99011.50;4988642;28;20211;-78
2022/11/07 03:47:14;;;;;;;0.50;0.50;;;;;;;8.07;92.72;98999.47;4971456;28;20085;-79
2022/11/07 03:49:40;;;;;;;0.40;0.40;;;;;;;8.00;92.94;98992.72;4988132;28;20045;-79
2022/11/07 03:52:05;;;;;;;0.40;0.40;;;;;;;7.96;93.59;98993.66;4987623;28;20129;-78
2022/11/07 03:54:31;;;;;;;0.45;0.45;;;;;;;8.01;93.41;98986.66;4988727;28;20046;-78
2022/11/07 03:56:56;;;;;;;1.55;1.38;;;;;;;8.02;93.40;98991.81;4988233;28;20152;-77
2022/11/07 03:59:21;;;;;;;0.40;0.40;;;;;;;7.97;93.57;98983.28;4988132;28;20039;-77
2022/11/07 04:01:47;;;;;;;0.40;0.40;;;;;;;7.97;93.74;98982.47;4988850;28;20023;-78
2022/11/07 04:04:12;;;;;;;0.50;0.50;;;;;;;7.92;93.85;98991.13;4988416;28;20063;-78
2022/11/07 04:06:37;;;;;;;0.40;0.40;;;;;;;7.94;93.75;98984.22;4988297;28;20034;-79
2022/11/07 04:09:03;;;;;;;0.50;0.50;;;;;;;7.89;94.13;98970.53;4988282;28;20525;-78
2022/11/07 04:19:40;;;;;;;0.40;0.40;;;;;;;7.97;94.47;98956.63;4987862;28;20042;-76
2022/11/07 04:22:06;;;;;;;0.50;0.50;;;;;;;8.08;94.70;98959.84;4970096;28;20027;-77
2022/11/07 04:24:31;;;;;;;0.50;0.50;;;;;;;8.08;94.64;98956.38;4987558;28;20332;-77
2022/11/07 04:29:41;;;;;;;0.50;0.50;;;;;;;8.01;94.88;98941.00;4987546;28;20061;-76
2022/11/07 04:32:06;;;;;;;0.50;0.50;;;;;;;8.20;93.40;98943.19;4987530;28;20023;-76
2022/11/07 04:34:31;;;;;;;0.40;0.40;;;;;;;8.12;94.30;98921.81;4987400;28;20026;-76
2022/11/07 04:36:57;;;;;;;0.50;0.50;;;;;;;8.03;94.77;98920.31;4987245;28;20027;-76
2022/11/07 04:39:22;;;;;;;0.50;0.50;;;;;;;8.08;94.77;98921.06;4987323;28;20022;-77
2022/11/07 04:41:47;;;;;;;0.40;0.40;;;;;;;8.04;94.67;98916.81;4987156;28;20058;-76
2022/11/07 04:44:13;;;;;;;0.40;0.40;;;;;;;8.06;95.20;98912.47;4987351;28;20046;-76
2022/11/07 04:46:38;;;;;;;0.50;0.50;;;;;;;8.02;94.72;98892.78;4987309;28;20031;-76
2022/11/07 04:49:03;;;;;;;0.50;0.50;;;;;;;8.03;95.66;98909.97;4986994;28;20530;-76
2022/11/07 04:51:29;;;;;;;0.50;0.50;;;;;;;8.04;95.84;98916.81;4987053;28;20027;-75
2022/11/07 04:53:54;;;;;;;0.40;0.40;;;;;;;8.14;95.45;98908.00;4987082;28;20466;-76
2022/11/07 04:56:19;;;;;;;0.50;0.50;;;;;;;8.13;95.14;98903.69;4986896;28;20054;-76
2022/11/07 04:58:45;;;;;;;0.50;0.50;;;;;;;8.12;95.49;98889.06;4987153;28;20087;-77
2022/11/07 05:01:10;;;;;;;0.40;0.40;;;;;;;8.13;95.47;98885.59;4987027;28;20027;-76
2022/11/07 05:03:35;;;;;;;0.50;0.50;;;;;;;8.10;96.03;98879.66;4986729;28;20387;-77
2022/11/07 05:06:03;;;;;;;0.50;0.50;;;;;;;8.17;95.79;98878.63;4985417;28;20030;-78
2022/11/07 05:08:29;;;;;;;0.40;0.40;;;;;;;8.11;96.15;98882.22;4986950;28;20105;-76
2022/11/07 05:10:54;;;;;;;0.40;0.40;;;;;;;8.21;95.60;98864.72;4986899;28;20475;-77
2022/11/07 05:13:19;;;;;;;0.40;0.40;;;;;;;8.34;95.19;98860.13;4986692;28;20041;-77
2022/11/07 05:15:45;;;;;;;0.50;0.50;;;;;;;8.36;94.79;98863.53;4986908;28;20022;-77
2022/11/07 05:18:10;;;;;;;0.43;0.43;;;;;;;8.26;95.55;98865.47;4985284;28;20033;-77
2022/11/07 05:20:38;;;;;;;0.40;0.40;;;;;;;8.29;95.87;98867.16;4986434;28;20483;-74
2022/11/07 05:23:17;;;;;;;0.50;0.50;;;;;;;8.27;95.71;98861.16;4969158;28;20057;-75
2022/11/07 05:26:00;;;;;;;0.50;0.50;;;;;;;8.24;96.07;98853.50;4986440;28;20027;-74
2022/11/07 05:28:28;;;;;;;0.40;0.40;;;;;;;8.14;96.79;98851.13;4986248;28;20023;-75
2022/11/07 05:30:58;;;;;;;0.40;0.40;;;;;;;8.10;97.45;98849.47;4985098;28;20482;-74
2022/11/07 05:33:23;;;;;;;0.45;0.45;;;;;;;8.19;97.52;98833.75;4986345;28;20037;-75
2022/11/07 05:35:48;;;;;;;0.40;0.40;;;;;;;8.22;96.23;98826.81;4985935;28;20027;-71
2022/11/07 05:38:14;;;;;;;0.50;0.50;;;;;;;8.24;96.96;98845.72;4985646;28;20154;-72
2022/11/07 05:40:40;;;;;;;0.40;0.40;;;;;;;8.26;96.99;98831.88;4986514;28;20067;-74
2022/11/07 05:43:11;;;;;;;0.40;0.40;;;;;;;8.28;96.42;98824.06;4986426;28;20475;-75
2022/11/07 05:45:37;;;;;;;0.50;0.50;;;;;;;8.43;96.27;98822.84;4986445;28;20087;-73
2022/11/07 05:48:05;;;;;;;0.40;0.40;;;;;;;8.39;96.16;98824.66;4986291;28;20061;-74
2022/11/07 05:50:30;;;;;;;0.40;0.40;;;;;;;8.35;96.79;98820.47;4968886;28;20506;-74
2022/11/07 05:52:57;;;;;;;0.40;0.40;;;;;;;8.24;97.91;98812.13;4986099;28;20030;-73
2022/11/07 05:55:23;;;;;;;0.40;0.40;;;;;;;8.37;97.48;98815.25;4986274;28;20061;-73
2022/11/07 05:57:48;;;;;;;0.50;0.50;;;;;;;8.65;96.50;98820.59;4986174;28;20026;-72
2022/11/07 06:00:15;;;;;;;0.40;0.40;;;;;;;8.39;97.44;98829.84;4986135;28;20031;-75
2022/11/07 06:02:40;;;;;;;0.40;0.40;;;;;;;8.50;97.68;98815.81;4986328;28;20098;-72
2022/11/07 06:05:06;;;;;;;0.40;0.40;;;;;;;8.43;98.25;98797.81;4986384;28;20023;-73
2022/11/07 06:07:36;;;;;;;0.60;0.60;;;;;;;8.50;98.71;98797.69;4968690;28;20035;-70
2022/11/07 06:10:03;;;;;;;13.95;1.63;;;;;;;8.50;98.34;98808.88;4986313;28;20238;-70
2022/11/07 06:12:28;;;;;;;0.95;0.95;;;;;;;8.51;98.89;98796.78;4986175;28;20031;-71
2022/11/07 06:14:53;;;;;;;0.50;0.50;;;;;;;8.73;98.58;98793.66;4987300;28;20057;-70
2022/11/07 06:17:19;;;;;;;0.73;0.73;;;;;;;8.50;99.58;98802.88;4989957;28;20383;-71
2022/11/07 06:19:44;;;;;;;0.88;0.88;;;;;;;8.59;99.57;98812.16;4989665;28;20050;-71
2022/11/07 06:22:09;;;;;;;0.45;0.45;;;;;;;8.54;100.00;98805.38;4972276;28;20077;-72
2022/11/07 06:24:35;;;;;;;1.63;1.30;;;;;;;8.59;100.00;98801.81;4989797;28;20023;-71
2022/11/07 06:27:00;;;;;;;0.40;0.40;;;;;;;8.58;100.00;98802.69;4989667;28;20026;-72
2022/11/07 06:29:25;;;;;;;0.80;0.80;;;;;;;8.64;100.00;98798.19;4989576;28;20023;-71
2022/11/07 06:31:51;;;;;;;0.40;0.40;;;;;;;8.66;100.00;98796.41;4989729;28;20087;-72
2022/11/07 06:34:16;;;;;;;0.40;0.40;;;;;;;8.78;100.00;98802.16;4989572;28;20054;-70
2022/11/07 06:36:41;;;;;;;0.40;0.40;;;;;;;8.77;100.00;98795.31;4989470;28;20026;-71
2022/11/07 06:39:07;;;;;;;0.50;0.50;;;;;;;8.75;100.00;98790.16;4989885;28;20086;-73
2022/11/07 06:41:32;;;;;;;1.13;1.13;;;;;;;8.77;100.00;98792.72;4989280;28;20038;-72
2022/11/07 06:43:57;;;;;;;0.40;0.40;;;;;;;8.97;100.00;98786.13;4989461;28;20050;-72
2022/11/07 06:46:24;;;;;;;2.05;1.95;;;;;;;8.94;100.00;98779.31;4989460;28;20130;-72
2022/11/07 06:48:50;;;;;;;0.40;0.40;;;;;;;8.96;100.00;98784.44;4988040;28;20018;-74
2022/11/07 06:51:15;;;;;;;0.50;0.50;;;;;;;9.16;100.00;98797.66;4989313;28;20091;-71
2022/11/07 06:53:40;;;;;;;0.40;0.40;;;;;;;9.25;99.99;98790.53;4989235;28;20057;-74
2022/11/07 06:56:09;;;;;;;0.40;0.40;;;;;;;9.09;100.00;98796.13;4989382;28;20022;-73
2022/11/07 06:58:35;;;;;;;0.40;0.40;;;;;;;9.12;100.00;98790.03;4989062;28;20023;-73
2022/11/07 07:01:02;;;;;;;0.40;0.40;;;;;;;9.16;100.00;98792.47;4989117;28;20033;-72
2022/11/07 07:03:28;;;;;;;2.33;2.20;;;;;;;9.25;100.00;98783.59;4989334;28;20018;-74
2022/11/07 07:05:53;;;;;;;0.50;0.50;;;;;;;9.28;100.00;98787.84;4988924;28;20090;-72
2022/11/07 07:08:19;;;;;;;1.90;1.80;;;;;;;9.31;100.00;98785.16;4989129;28;20034;-74
2022/11/07 07:10:44;;;;;;;2.00;1.90;;;;;;;9.39;100.00;98792.72;4989009;28;20029;-73
2022/11/07 07:13:11;;;;;;;0.40;0.40;;;;;;;9.45;100.00;98813.25;4989072;28;20019;-72
2022/11/07 07:15:37;;;;;;;0.50;0.50;;;;;;;9.46;100.00;98789.03;4988896;28;20019;-74
2022/11/07 07:18:03;;;;;;;0.40;0.40;;;;;;;9.53;100.00;98776.75;4989066;28;20027;-75
2022/11/07 07:20:29;;;;;;;0.43;0.43;;;;;;;9.55;100.00;98787.91;4988603;28;20065;-73
2022/11/07 07:22:54;;;;;;;0.40;0.40;;;;;;;9.53;100.00;98787.97;4988866;28;20050;-71
2022/11/07 07:25:20;;;;;;;0.43;0.43;;;;;;;9.60;100.00;98785.19;4988643;28;20057;-74
2022/11/07 07:27:45;;;;;;;0.50;0.50;;;;;;;9.65;100.00;98789.31;4987474;28;20471;-75
2022/11/07 07:30:12;;;;;;;0.65;0.65;;;;;;;9.70;100.00;98783.13;4988666;28;20026;-74
2022/11/07 07:32:37;;;;;;;0.40;0.40;;;;;;;9.71;100.00;98784.84;4988767;28;20023;-76
2022/11/07 07:35:03;;;;;;;0.40;0.40;;;;;;;9.79;100.00;98790.66;4988774;28;20564;-75
2022/11/07 07:37:29;;;;;;;0.40;0.40;;;;;;;9.83;100.00;98794.81;4988410;28;20029;-74
2022/11/07 07:39:55;;;;;;;0.60;0.60;;;;;;;9.81;100.00;98781.06;4988453;28;20023;-74
2022/11/07 07:42:20;;;;;;;0.40;0.40;;;;;;;9.87;100.00;98791.22;4988391;28;20026;-75
2022/11/07 07:44:45;;;;;;;0.40;0.40;;;;;;;9.87;100.00;98788.63;4988391;28;20086;-74
2022/11/07 07:47:11;;;;;;;0.40;0.40;;;;;;;9.89;100.00;98786.00;4988285;28;20026;-75
2022/11/07 07:49:36;;;;;;;0.40;0.40;;;;;;;9.85;100.00;98792.19;4988319;28;20034;-75
2022/11/07 07:52:01;;;;;;;0.40;0.40;;;;;;;9.92;100.00;98796.28;4988077;28;20023;-73
2022/11/07 07:54:27;;;;;;;0.40;0.40;;;;;;;9.90;100.00;98787.72;4988144;28;20082;-74
2022/11/07 07:56:52;;;;;;;0.40;0.40;;;;;;;9.96;100.00;98787.50;4988155;28;20023;-73
2022/11/07 07:59:18;;;;;;;0.50;0.50;;;;;;;9.96;100.00;98784.94;4988195;28;20521;-74
2022/11/07 08:01:43;;;;;;;0.50;0.50;;;;;;;10.00;100.00;98801.25;4970702;28;20029;-73
2022/11/07 08:04:08;;;;;;;0.40;0.40;;;;;;;10.04;100.00;98811.47;4988037;28;20502;-71
2022/11/07 08:06:36;;;;;;;0.40;0.40;;;;;;;10.07;100.00;98804.47;4987875;28;20035;-70
2022/11/07 08:09:01;;;;;;;0.40;0.40;;;;;;;10.08;100.00;98795.81;4987892;28;20034;-70
2022/11/07 08:11:27;;;;;;;0.40;0.40;;;;;;;10.16;100.00;98798.97;4986824;28;20022;-71
2022/11/07 08:13:52;;;;;;;0.40;0.40;;;;;;;10.12;100.00;98794.78;4987762;28;20046;-71
2022/11/07 08:16:18;;;;;;;0.40;0.40;;;;;;;10.09;100.00;98798.34;4987877;28;20101;-73
2022/11/07 08:18:43;;;;;;;0.40;0.40;;;;;;;10.21;99.60;98796.25;4987616;28;20022;-71
2022/11/07 08:21:09;;;;;;;0.40;0.40;;;;;;;10.12;99.79;98784.41;4986090;28;20066;-72
2022/11/07 08:23:34;;;;;;;0.40;0.40;;;;;;;10.14;98.97;98791.25;4987777;28;20478;-71
2022/11/07 08:26:01;;;;;;;1.05;1.05;;;;;;;10.17;98.69;98798.91;4987487;28;20027;-71
2022/11/07 08:28:28;;;;;;;1.20;1.20;;;;;;;10.19;99.23;98793.72;4987627;28;20030;-70
2022/11/07 08:30:58;;;;;;;0.40;0.40;;;;;;;10.19;98.96;98790.25;4987523;28;20030;-70
2022/11/07 08:33:24;;;;;;;0.40;0.40;;;;;;;10.19;98.63;98791.13;4987618;28;20050;-71
2022/11/07 08:35:49;;;;;;;0.43;0.43;;;;;;;10.27;98.50;98793.44;4987574;28;20027;-69
2022/11/07 08:38:15;;;;;;;0.40;0.40;;;;;;;10.31;98.54;98792.44;4986971;28;20027;-71
2022/11/07 08:40:40;;;;;;;0.60;0.60;;;;;;;10.33;98.54;98792.38;4970131;28;20027;-71
2022/11/07 08:43:05;;;;;;;0.40;0.40;;;;;;;10.27;98.06;98788.25;4987293;28;20046;-71
2022/11/07 08:45:31;;;;;;;0.50;0.50;;;;;;;10.27;97.54;98790.88;4987185;28;20029;-71
2022/11/07 08:47:57;;;;;;;0.40;0.40;;;;;;;10.26;97.22;98802.13;4987149;28;20164;-71
2022/11/07 08:50:24;;;;;;;0.50;0.50;;;;;;;10.30;97.25;98790.75;4987227;28;20047;-70
2022/11/07 08:52:49;;;;;;;0.40;0.40;;;;;;;10.35;97.04;98807.00;4987179;28;20037;-71
2022/11/07 08:55:14;;;;;;;0.40;0.40;;;;;;;10.34;96.67;98797.53;4987084;28;20390;-71
2022/11/07 08:57:40;;;;;;;4.78;4.32;;;;;;;10.32;96.70;98799.31;4986962;28;20019;-71
2022/11/07 09:00:06;;;;;;;0.50;0.50;;;;;;;10.35;96.53;98795.78;4986983;28;20026;-71
2022/11/07 09:02:31;;;;;;;0.50;0.50;;;;;;;10.35;96.04;98795.78;4987003;28;20073;-72
2022/11/07 09:04:56;;;;;;;0.55;0.55;;;;;;;10.37;95.61;98801.75;4987026;28;20027;-74
2022/11/07 09:07:22;;;;;;;2.60;2.33;;;;;;;10.36;95.10;98794.88;4986788;28;20118;-74
2022/11/07 09:09:47;;;;;;;0.82;0.82;;;;;;;10.38;95.19;98806.88;4986787;28;20493;-71
2022/11/07 09:12:13;;;;;;;0.40;0.40;;;;;;;10.38;94.84;98801.69;4987045;28;20106;-72
2022/11/07 09:14:38;;;;;;;0.40;0.40;;;;;;;10.35;94.90;98811.34;4986896;28;20026;-71
2022/11/07 09:17:03;;;;;;;0.40;0.40;;;;;;;10.37;94.89;98815.59;4986811;28;20031;-73
2022/11/07 09:19:29;;;;;;;0.50;0.50;;;;;;;10.34;94.47;98809.63;4985228;28;20025;-72
2022/11/07 09:21:56;;;;;;;0.98;0.95;;;;;;;10.39;94.36;98802.56;4986712;28;20073;-73
2022/11/07 09:24:21;;;;;;;0.70;0.70;;;;;;;10.39;94.13;98802.56;4986643;28;20102;-72
2022/11/07 09:26:46;;;;;;;0.50;0.50;;;;;;;10.45;93.84;98796.34;4986733;28;20364;-71
2022/11/07 09:29:12;;;;;;;1.58;1.48;;;;;;;10.44;93.92;98798.06;4986581;28;20031;-72
2022/11/07 09:31:37;;;;;;;0.47;0.47;;;;;;;10.44;93.83;98808.44;4986607;28;20104;-70
2022/11/07 09:34:03;;;;;;;0.88;0.88;;;;;;;10.45;93.91;98814.50;4986551;28;20037;-72
2022/11/07 09:36:28;;;;;;;0.40;0.40;;;;;;;10.37;93.98;98810.38;4986682;28;20023;-72
2022/11/07 09:38:55;;;;;;;0.85;0.85;;;;;;;10.39;94.44;98807.75;4986508;28;20019;-73
2022/11/07 09:41:34;;;;;;;0.40;0.40;;;;;;;10.41;94.58;98800.78;4986461;28;20026;-71
2022/11/07 09:44:19;;;;;;;1.50;1.50;;;;;;;10.33;95.06;98815.72;4986414;28;20030;-73
2022/11/07 09:46:50;;;;;;;4.53;4.10;;;;;;;10.26;95.31;98815.94;4986541;28;20047;-71
2022/11/07 09:49:22;;;;;;;0.50;0.50;;;;;;;10.24;95.90;98816.91;4969271;28;20027;-71
2022/11/07 09:52:18;;;;;;;0.50;0.50;;;;;;;10.15;96.33;98828.41;4990503;28;20042;-70
2022/11/07 09:54:52;;;;;;;1.05;1.05;;;;;;;10.09;96.52;98828.59;4990583;28;20096;-69
2022/11/07 09:57:18;;;;;;;0.40;0.40;;;;;;;9.91;96.39;98834.31;4990478;28;20027;-70
2022/11/07 09:59:52;;;;;;;0.40;0.40;;;;;;;9.83;96.35;98851.00;4990523;28;20442;-70
2022/11/07 10:02:20;;;;;;;0.40;0.40;;;;;;;9.73;96.24;98847.84;4990442;28;20026;-70
2022/11/07 10:04:52;;;;;;;0.40;0.40;;;;;;;9.65;96.73;98848.91;4990425;28;20420;-69
2022/11/07 10:07:34;;;;;;;0.50;0.50;;;;;;;9.62;96.71;98859.38;4990184;28;20123;-69
2022/11/07 10:10:21;;;;;;;0.40;0.40;;;;;;;9.58;97.24;98857.78;4990144;28;20035;-69
2022/11/07 10:13:15;;;;;;;0.43;0.43;;;;;;;9.54;97.51;98853.56;4990342;28;20046;-69
2022/11/07 10:16:11;;;;;;;0.60;0.60;;;;;;;9.51;97.80;98858.84;4990223;28;20031;-69
2022/11/07 10:18:52;;;;;;;0.40;0.40;;;;;;;9.51;98.18;98870.06;4989966;28;20467;-70
2022/11/07 10:21:47;;;;;;;0.50;0.50;;;;;;;9.54;98.38;98874.28;4989727;28;20134;-70
2022/11/07 10:24:37;;;;;;;0.38;0.38;;;;;;;9.52;98.26;98876.09;4990218;28;20050;-70
2022/11/07 10:27:07;;;;;;;0.50;0.50;;;;;;;9.51;98.40;98879.56;4989945;28;20034;-69
2022/11/07 10:29:43;;;;;;;0.40;0.40;;;;;;;9.52;98.62;98883.88;4989708;28;20114;-69
2022/11/07 10:32:28;;;;;;;0.40;0.40;;;;;;;9.50;98.58;98893.41;4989712;28;20033;-69
2022/11/07 10:35:14;;;;;;;0.40;0.40;;;;;;;9.49;99.17;98896.91;4989798;28;20073;-67
2022/11/07 10:37:39;;;;;;;0.40;0.40;;;;;;;9.48;98.82;98902.97;4989639;28;20069;-69
2022/11/07 10:40:15;;;;;;;0.40;0.40;;;;;;;9.46;99.13;98902.16;4972397;28;20026;-68
2022/11/07 10:42:43;;;;;;;0.40;0.40;;;;;;;9.40;99.04;98901.44;4989570;28;20022;-69
2022/11/07 10:45:14;;;;;;;0.70;0.65;;;;;;;9.38;99.06;98913.59;4989579;28;20022;-68
2022/11/07 10:47:40;;;;;;;0.43;0.43;;;;;;;9.37;99.61;98917.06;4989442;28;20035;-68
2022/11/07 10:50:19;;;;;;;0.40;0.40;;;;;;;9.43;99.56;98913.44;4989334;28;20034;-69
2022/11/07 10:52:56;;;;;;;0.40;0.40;;;;;;;9.44;99.38;98922.09;4989221;28;20026;-70
2022/11/07 10:55:23;;;;;;;0.40;0.40;;;;;;;9.38;99.14;98913.59;4989405;28;20030;-69
2022/11/07 10:58:01;;;;;;;0.40;0.40;;;;;;;9.37;99.50;98919.66;4989306;28;20026;-70
2022/11/07 11:00:29;;;;;;;0.40;0.40;;;;;;;9.39;99.54;98924.81;4989027;28;20030;-70
2022/11/07 11:02:55;;;;;;;0.40;0.40;;;;;;;9.36;100.00;98924.88;4989164;28;20031;-70
2022/11/07 11:05:24;;;;;;;0.40;0.40;;;;;;;9.35;100.00;98929.22;4989275;28;20150;-69
2022/11/07 11:07:50;;;;;;;0.40;0.40;;;;;;;9.41;100.00;98933.34;4989006;28;20038;-69
2022/11/07 11:10:26;;;;;;;0.50;0.50;;;;;;;9.37;100.00;98922.25;4989098;28;20097;-70
2022/11/07 11:12:52;;;;;;;0.40;0.40;;;;;;;9.35;99.87;98936.13;4989128;28;20030;-68
2022/11/07 11:15:20;;;;;;;0.40;0.40;;;;;;;9.32;99.73;98938.78;4989191;28;20035;-68
2022/11/07 11:17:55;;;;;;;0.40;0.40;;;;;;;9.25;100.00;98936.38;4989079;28;20051;-70
2022/11/07 11:20:37;;;;;;;0.40;0.40;;;;;;;9.23;100.00;98940.75;4988675;28;20043;-69
2022/11/07 11:23:05;;;;;;;0.50;0.50;;;;;;;9.23;100.00;98950.25;4988960;28;20023;-68
2022/11/07 11:25:31;;;;;;;0.40;0.40;;;;;;;9.18;99.90;98946.03;4988871;28;20062;-70
2022/11/07 11:28:11;;;;;;;0.40;0.40;;;;;;;9.16;100.00;98947.84;4987449;28;20062;-68
2022/11/07 11:30:37;;;;;;;0.40;0.40;;;;;;;9.15;100.00;98945.28;4988831;28;20033;-67
2022/11/07 11:33:10;;;;;;;0.50;0.50;;;;;;;9.14;100.00;98944.44;4988777;28;20027;-67
2022/11/07 11:35:50;;;;;;;1.77;1.67;;;;;;;9.14;100.00;98957.38;4988849;28;20470;-68
2022/11/07 11:38:23;;;;;;;0.40;0.40;;;;;;;9.13;100.00;98955.69;4988443;28;20019;-67
2022/11/07 11:41:06;;;;;;;0.40;0.40;;;;;;;9.14;100.00;98947.03;4988588;28;20066;-68
2022/11/07 11:43:46;;;;;;;0.50;0.50;;;;;;;9.11;100.00;98952.28;4988557;28;20490;-67
2022/11/07 11:46:15;;;;;;;0.50;0.50;;;;;;;9.09;100.00;98950.63;4987279;28;20030;-68
2022/11/07 11:48:46;;;;;;;0.50;0.50;;;;;;;9.07;100.00;98955.84;4988357;28;20081;-68
2022/11/07 11:51:20;;;;;;;0.50;0.50;;;;;;;9.10;100.00;98952.31;4987066;28;20033;-68
2022/11/07 11:53:45;;;;;;;0.40;0.40;;;;;;;9.09;100.00;98958.41;4988437;28;20035;-67